CheckWX is a tool to help pilots better visualize weather data.  It is not intended as a substitute for an official pre-flight weather briefing.

09:54:44 UTC

KSTK METAR
Sterling Municipal Airport
Sterling, Colorado, USA
Current

25 mins ago

KSTK 200930Z AUTO 00000KT 10SM CLR M13/M14 A2964 RMK AO2
Observed
Feb-20 @ 09:30 UTC
Visibility
16,093 meters
Flight Rules
VFR
Cloud Levels
  • Clear skies
Temperature
-13°C / 9°F
Dewpoint
-14°C / 7°F
Humidity
92%
Altimeter
29.64" Hg
Pressure
1003.72 hPa
Previous

45 mins ago

KSTK 200910Z AUTO 26003KT 10SM CLR M13/M15 A2964 RMK AO2
Observed
Feb-20 @ 09:10 UTC
Wind
  • 260° at 3 KTS
Visibility
16,093 meters
Flight Rules
VFR
Cloud Levels
  • Clear skies
Temperature
-13°C / 9°F
Dewpoint
-15°C / 5°F
Humidity
85%
Altimeter
29.64" Hg
Pressure
1003.72 hPa
Previous

1 hour ago

KSTK 200850Z AUTO 27006KT 10SM CLR M13/M14 A2965 RMK AO2
Observed
Feb-20 @ 08:50 UTC
Wind
  • 270° at 6 KTS
Visibility
16,093 meters
Flight Rules
VFR
Cloud Levels
  • Clear skies
Temperature
-13°C / 9°F
Dewpoint
-14°C / 7°F
Humidity
92%
Altimeter
29.65" Hg
Pressure
1004.02 hPa